Time;durP1;ratioP1;P1;durP2;ratioP2;P2;SDS_P1;SDS_P2;PMS_P1;PMS_P2;Temp;Humidity;BMP_temperature;BMP_pressure;BME280_temperature;BME280_humidity;BME280_pressure;Samples;Min_cycle;Max_cycle;Signal;HPM_P1;HPM_P2
2022/12/15 00:41:04;;;;;;;20.02;11.63;;;-1.60;99.90;;;;;;5071547;28;20049;-68
2022/12/15 00:43:34;;;;;;;19.92;10.80;;;-1.80;99.90;;;;;;5072785;28;20490;-68
2022/12/15 00:48:45;;;;;;;18.73;10.32;;;-1.70;99.90;;;;;;5075189;28;20483;-68
2022/12/15 00:51:12;;;;;;;15.93;9.75;;;-1.70;99.90;;;;;;5075362;28;20043;-68
2022/12/15 01:21:07;;;;;;;16.88;10.07;;;-1.80;99.90;;;;;;5074731;28;20094;-68
2022/12/15 01:23:33;;;;;;;18.27;10.18;;;-1.60;99.90;;;;;;5039646;28;20095;-69
2022/12/15 01:25:58;;;;;;;16.23;9.73;;;-1.70;99.90;;;;;;5075012;28;20120;-68
2022/12/15 01:28:24;;;;;;;19.80;10.18;;;-1.60;99.90;;;;;;5056440;28;20560;-69
2022/12/15 01:30:50;;;;;;;17.83;10.70;;;-1.80;99.90;;;;;;5074293;28;20032;-69
2022/12/15 01:33:16;;;;;;;17.67;10.10;;;-1.90;99.90;;;;;;5056351;28;20045;-68
2022/12/15 01:35:42;;;;;;;18.67;10.93;;;-1.70;99.90;;;;;;5056279;28;20487;-69
2022/12/15 01:38:08;;;;;;;17.55;10.20;;;-1.60;99.90;;;;;;5056509;28;20046;-68
2022/12/15 01:40:48;;;;;;;21.10;10.68;;;-1.70;99.90;;;;;;5056443;28;20516;-68
2022/12/15 01:43:27;;;;;;;19.25;11.20;;;-1.70;99.90;;;;;;5074010;28;20055;-68
2022/12/15 01:46:00;;;;;;;20.75;11.45;;;-1.80;99.90;;;;;;5056437;28;20059;-68
2022/12/15 01:48:56;;;;;;;19.50;9.77;;;-2.00;99.90;;;;;;5056356;28;20037;-68
2022/12/15 01:51:34;;;;;;;18.95;11.63;;;-1.90;99.90;;;;;;5032896;28;20613;-68
2022/12/15 01:54:14;;;;;;;19.83;10.57;;;-1.80;99.90;;;;;;5073067;28;20032;-68
2022/12/15 01:56:44;;;;;;;18.90;10.13;;;-2.00;99.90;;;;;;5055734;28;20076;-68
2022/12/15 01:59:15;;;;;;;19.90;11.65;;;-1.90;99.90;;;;;;5073864;28;20078;-68
2022/12/15 02:01:40;;;;;;;16.73;10.48;;;-1.90;99.90;;;;;;5055817;28;20037;-69
2022/12/15 02:04:07;;;;;;;19.77;10.55;;;-2.00;99.90;;;;;;5055453;28;20490;-68
2022/12/15 02:06:33;;;;;;;17.42;9.95;;;-2.00;99.90;;;;;;5055927;28;20445;-68
2022/12/15 02:09:00;;;;;;;22.70;11.60;;;-2.10;99.90;;;;;;5055598;28;20510;-68
2022/12/15 02:11:34;;;;;;;16.00;9.88;;;-1.90;99.90;;;;;;5055635;28;20056;-68
2022/12/15 02:14:03;;;;;;;22.23;11.35;;;-1.90;99.90;;;;;;5073213;28;20518;-68
2022/12/15 02:17:09;;;;;;;21.25;10.05;;;-2.20;99.90;;;;;;5073503;28;20109;-68
2022/12/15 02:19:58;;;;;;;18.60;9.73;;;-2.20;99.90;;;;;;5039413;28;20048;-67
2022/12/15 02:22:32;;;;;;;15.80;9.18;;;-2.20;99.90;;;;;;5072999;28;20036;-68
2022/12/15 02:25:29;;;;;;;14.70;9.05;;;-1.90;99.90;;;;;;5055438;28;20120;-68
2022/12/15 02:28:10;;;;;;;14.60;8.70;;;-2.10;99.90;;;;;;5073474;28;20119;-68
2022/12/15 02:30:41;;;;;;;15.55;8.80;;;-1.90;99.90;;;;;;5055262;28;20418;-68
2022/12/15 02:33:18;;;;;;;14.57;9.13;;;-2.00;99.90;;;;;;5038389;28;20041;-67
2022/12/15 02:36:03;;;;;;;17.55;9.90;;;-2.20;99.90;;;;;;5073250;28;20045;-68
2022/12/15 02:38:40;;;;;;;17.60;8.68;;;-1.80;99.90;;;;;;5073160;28;20120;-68
2022/12/15 02:41:42;;;;;;;16.73;9.50;;;-1.80;99.90;;;;;;5072966;28;20044;-68
2022/12/15 02:44:11;;;;;;;14.32;8.82;;;-1.80;99.90;;;;;;5054733;28;20041;-67
2022/12/15 02:47:03;;;;;;;18.40;10.07;;;-2.10;99.90;;;;;;5054975;28;20048;-68
2022/12/15 02:49:58;;;;;;;17.50;10.13;;;-1.90;99.90;;;;;;5054787;28;20068;-68
2022/12/15 02:52:35;;;;;;;18.80;9.57;;;-1.90;99.90;;;;;;5072732;28;20040;-67
2022/12/15 02:55:19;;;;;;;16.80;10.63;;;-1.70;99.90;;;;;;5054919;28;20037;-68
2022/12/15 02:57:59;;;;;;;16.00;9.25;;;-1.60;99.90;;;;;;5054557;28;20045;-68
2022/12/15 03:00:27;;;;;;;18.13;9.23;;;-1.70;99.90;;;;;;5072544;28;20564;-68
2022/12/15 03:02:54;;;;;;;16.60;8.63;;;-2.00;99.90;;;;;;5054334;28;20037;-68
2022/12/15 03:05:22;;;;;;;17.83;10.27;;;-1.80;99.90;;;;;;5072326;28;20071;-68
2022/12/15 03:07:50;;;;;;;16.48;9.48;;;-1.60;99.90;;;;;;5072486;28;20044;-68
2022/12/15 03:10:16;;;;;;;16.33;9.45;;;-1.80;99.90;;;;;;5072160;28;20093;-68
2022/12/15 03:12:42;;;;;;;18.98;8.45;;;-1.60;99.90;;;;;;5054377;28;20375;-68
2022/12/15 03:15:08;;;;;;;14.35;7.63;;;-1.70;99.90;;;;;;5054421;28;20182;-68
2022/12/15 03:17:33;;;;;;;14.88;8.98;;;-1.50;99.90;;;;;;5037735;28;20391;-67
2022/12/15 03:19:59;;;;;;;15.98;7.53;;;-1.80;99.90;;;;;;5072323;28;20384;-68
2022/12/15 03:22:24;;;;;;;14.05;7.20;;;-1.40;99.90;;;;;;5037356;28;20064;-68
2022/12/15 03:24:50;;;;;;;11.55;7.32;;;-1.80;99.90;;;;;;5072102;28;20098;-68
2022/12/15 03:27:15;;;;;;;12.52;7.70;;;-1.60;99.90;;;;;;5072375;28;20032;-68
2022/12/15 03:29:41;;;;;;;13.40;8.57;;;-1.70;99.90;;;;;;5072082;28;20041;-68
2022/12/15 03:32:07;;;;;;;12.15;7.53;;;-1.60;99.90;;;;;;5072176;28;20036;-68
2022/12/15 03:34:32;;;;;;;13.07;8.02;;;-1.60;99.90;;;;;;5037326;28;20044;-68
2022/12/15 03:36:58;;;;;;;12.55;8.25;;;-1.40;99.90;;;;;;5072106;28;20450;-68
2022/12/15 03:39:23;;;;;;;14.13;7.65;;;-1.40;99.90;;;;;;5053786;28;20073;-68
2022/12/15 03:41:49;;;;;;;12.10;7.63;;;-1.70;99.90;;;;;;5054012;28;20048;-68
2022/12/15 03:44:15;;;;;;;15.93;8.50;;;-1.60;99.90;;;;;;5053621;28;20123;-68
2022/12/15 03:46:40;;;;;;;14.68;7.53;;;-1.60;99.90;;;;;;5071868;28;20036;-68
2022/12/15 03:49:07;;;;;;;12.98;7.50;;;-1.70;99.90;;;;;;5071839;28;20044;-67
2022/12/15 03:51:32;;;;;;;14.30;7.97;;;-1.70;99.90;;;;;;5053974;28;20119;-68
2022/12/15 03:53:58;;;;;;;12.68;8.02;;;-1.50;99.90;;;;;;5071434;28;20127;-68
2022/12/15 03:56:23;;;;;;;14.25;8.30;;;-1.80;99.90;;;;;;5053985;28;20098;-68
2022/12/15 03:58:49;;;;;;;15.85;7.70;;;-1.60;99.90;;;;;;5071677;28;20033;-68
2022/12/15 04:01:18;;;;;;;17.80;8.93;;;-1.90;99.90;;;;;;5071562;28;20040;-68
2022/12/15 04:03:43;;;;;;;13.65;7.78;;;-1.90;99.90;;;;;;5071397;28;20036;-68
2022/12/15 04:06:09;;;;;;;11.98;7.47;;;-1.70;99.90;;;;;;5053702;28;20040;-68
2022/12/15 04:08:34;;;;;;;14.98;7.63;;;-1.80;99.90;;;;;;5071504;28;20040;-68
2022/12/15 04:11:00;;;;;;;15.15;8.18;;;-1.90;99.90;;;;;;5053745;28;20117;-68
2022/12/15 04:13:25;;;;;;;13.35;8.45;;;-1.90;99.90;;;;;;5053230;28;20040;-68
2022/12/15 04:15:51;;;;;;;13.07;8.30;;;-1.70;99.90;;;;;;5071675;28;20052;-68
2022/12/15 04:18:16;;;;;;;19.27;8.32;;;-2.00;99.90;;;;;;5070402;28;20041;-68
2022/12/15 04:20:42;;;;;;;15.15;8.50;;;-1.80;99.90;;;;;;5053141;28;20082;-69
2022/12/15 04:23:08;;;;;;;14.90;9.15;;;-2.00;99.90;;;;;;5053192;28;20044;-69
2022/12/15 05:31:45;;;;;;;16.42;9.75;;;-2.00;99.90;;;;;;5054327;28;20509;-67
2022/12/15 05:34:11;;;;;;;15.93;9.52;;;-2.10;99.90;;;;;;5036059;28;20048;-67
2022/12/15 05:36:36;;;;;;;15.07;9.23;;;-1.80;99.90;;;;;;5054448;28;20064;-67
2022/12/15 05:39:03;;;;;;;14.77;9.50;;;-2.00;99.90;;;;;;5054303;28;20102;-67
2022/12/15 05:41:29;;;;;;;15.20;8.60;;;-1.80;99.90;;;;;;5054083;28;20083;-67
2022/12/15 05:43:54;;;;;;;15.65;10.32;;;-2.00;99.90;;;;;;5035927;28;20426;-67
2022/12/15 05:46:20;;;;;;;15.98;11.00;;;-2.00;99.90;;;;;;5036438;28;20457;-67
2022/12/15 05:48:46;;;;;;;14.70;9.20;;;-2.10;99.90;;;;;;5036373;28;20064;-67
2022/12/15 05:51:12;;;;;;;14.93;8.27;;;-2.00;99.90;;;;;;5054103;28;20033;-67
2022/12/15 05:53:39;;;;;;;15.80;8.73;;;-1.70;99.90;;;;;;5035745;28;20041;-67
2022/12/15 05:56:10;;;;;;;17.30;10.65;;;-1.90;99.90;;;;;;5054105;28;20041;-67
2022/12/15 05:58:36;;;;;;;15.05;8.15;;;-2.10;99.90;;;;;;5054066;28;20041;-67
2022/12/15 06:01:07;;;;;;;15.57;8.68;;;-1.90;99.90;;;;;;5053776;28;20078;-68
2022/12/15 06:03:33;;;;;;;15.23;8.52;;;-2.00;99.90;;;;;;5053415;28;20124;-67
2022/12/15 06:05:59;;;;;;;14.35;8.60;;;-1.60;99.90;;;;;;5050337;28;20065;-68
2022/12/15 06:08:30;;;;;;;12.85;7.60;;;-1.90;99.90;;;;;;5033908;28;20044;-67
2022/12/15 06:10:56;;;;;;;12.20;8.68;;;-1.50;99.90;;;;;;5033706;28;20037;-67
2022/12/15 06:13:23;;;;;;;15.93;8.45;;;-1.50;99.90;;;;;;5033221;28;20735;-67
2022/12/15 06:15:56;;;;;;;17.08;8.02;;;-1.70;99.90;;;;;;5033863;28;20081;-67
2022/12/15 06:18:22;;;;;;;16.50;7.90;;;-1.60;99.90;;;;;;5015856;28;20046;-67
2022/12/15 06:20:47;;;;;;;15.68;7.78;;;-1.80;99.90;;;;;;5033584;28;20041;-67
2022/12/15 06:23:13;;;;;;;11.68;7.82;;;-1.80;99.90;;;;;;5033197;28;20376;-67
2022/12/15 06:25:38;;;;;;;14.85;8.23;;;-1.80;99.90;;;;;;5038437;28;20037;-68
2022/12/15 06:28:04;;;;;;;12.52;7.57;;;-1.90;99.90;;;;;;5033294;28;20068;-68
2022/12/15 06:30:29;;;;;;;12.73;7.80;;;-1.90;99.90;;;;;;5033246;28;20041;-66
2022/12/15 06:32:55;;;;;;;13.10;8.10;;;-1.80;99.90;;;;;;5033331;28;20464;-67
2022/12/15 06:35:20;;;;;;;14.82;8.20;;;-1.40;99.90;;;;;;5033965;28;20045;-67
2022/12/15 06:37:46;;;;;;;18.10;9.00;;;-1.80;99.90;;;;;;5033441;28;20091;-70
2022/12/15 06:40:12;;;;;;;16.15;8.88;;;-1.30;99.90;;;;;;5014661;28;20115;-69
2022/12/15 06:42:37;;;;;;;13.63;7.85;;;-1.30;99.90;;;;;;5014820;28;20136;-70
2022/12/15 06:45:03;;;;;;;15.65;8.70;;;-1.40;99.90;;;;;;5033515;28;20434;-70
2022/12/15 06:47:29;;;;;;;17.75;8.65;;;-1.60;99.90;;;;;;4999352;28;20037;-70
2022/12/15 06:49:55;;;;;;;22.80;10.40;;;-1.30;99.90;;;;;;5032942;28;20436;-69
2022/12/15 06:52:20;;;;;;;14.43;7.90;;;-1.50;99.90;;;;;;5015282;28;20044;-70
2022/12/15 06:54:46;;;;;;;13.00;7.53;;;-1.50;99.90;;;;;;5032856;28;20037;-70
2022/12/15 06:57:11;;;;;;;11.43;7.40;;;-1.30;99.90;;;;;;5015150;28;20484;-70
2022/12/15 06:59:37;;;;;;;15.25;7.75;;;-1.20;99.90;;;;;;5015366;28;20116;-70
2022/12/15 07:02:03;;;;;;;18.10;8.38;;;-1.10;99.90;;;;;;5032777;28;20038;-70
2022/12/15 07:04:31;;;;;;;15.05;8.40;;;-1.10;99.90;;;;;;5032659;28;20410;-70
2022/12/15 07:06:56;;;;;;;13.85;7.45;;;-1.30;99.90;;;;;;5015124;28;20056;-70
2022/12/15 07:09:24;;;;;;;14.07;7.18;;;-1.20;99.90;;;;;;5032771;28;20496;-71
2022/12/15 07:11:51;;;;;;;13.98;7.03;;;-1.50;99.90;;;;;;5014803;28;20365;-70
2022/12/15 07:14:16;;;;;;;12.93;7.20;;;-1.30;99.90;;;;;;5031845;28;20051;-70
2022/12/15 07:16:42;;;;;;;14.27;7.38;;;-1.50;99.90;;;;;;5032600;28;20511;-70
2022/12/15 07:19:11;;;;;;;13.15;7.13;;;-1.50;99.90;;;;;;4997978;28;20052;-70
2022/12/15 07:21:36;;;;;;;11.25;6.55;;;-1.00;99.90;;;;;;5014374;28;20507;-70
2022/12/15 07:24:02;;;;;;;17.90;7.40;;;-1.10;99.90;;;;;;5031782;28;20128;-71
2022/12/15 07:26:28;;;;;;;13.50;7.07;;;-1.30;99.90;;;;;;5014728;28;20513;-70
2022/12/15 07:28:53;;;;;;;16.40;7.30;;;-1.30;99.90;;;;;;5014509;28;20124;-70
2022/12/15 07:31:19;;;;;;;13.55;6.72;;;-1.40;99.90;;;;;;5014610;28;20035;-71
2022/12/15 07:33:47;;;;;;;13.50;6.60;;;-1.00;99.90;;;;;;5032033;28;20041;-70
2022/12/15 07:36:12;;;;;;;15.95;8.38;;;-1.00;99.90;;;;;;5032336;28;20076;-70
2022/12/15 07:38:38;;;;;;;11.75;6.70;;;-1.00;99.90;;;;;;5014280;28;20049;-70
2022/12/15 07:41:05;;;;;;;15.40;7.00;;;-1.30;99.90;;;;;;5014143;28;20037;-70
2022/12/15 07:43:31;;;;;;;14.35;7.22;;;-1.40;99.90;;;;;;5014229;28;20048;-70
2022/12/15 07:45:57;;;;;;;14.25;6.90;;;-1.40;99.90;;;;;;5014646;28;20041;-70
2022/12/15 07:48:23;;;;;;;11.45;6.70;;;-1.40;99.90;;;;;;5014404;28;20056;-70
2022/12/15 07:50:50;;;;;;;14.85;7.93;;;-1.20;99.90;;;;;;5031548;28;20033;-70
2022/12/15 07:53:16;;;;;;;17.13;8.25;;;-1.40;99.90;;;;;;5013494;28;20111;-70
2022/12/15 07:55:41;;;;;;;19.55;8.40;;;-1.20;99.90;;;;;;5031781;28;20492;-70
2022/12/15 07:58:07;;;;;;;14.65;7.60;;;-1.10;99.90;;;;;;5031991;28;20052;-69
2022/12/15 08:00:33;;;;;;;14.80;7.22;;;-1.30;99.90;;;;;;5031402;28;20048;-69
2022/12/15 08:03:01;;;;;;;14.40;7.03;;;-1.00;99.90;;;;;;5031421;28;20045;-70
2022/12/15 08:05:27;;;;;;;12.02;8.32;;;-1.10;99.90;;;;;;5031719;28;20045;-70
2022/12/15 08:07:52;;;;;;;13.57;8.35;;;-1.20;99.90;;;;;;5013605;28;20041;-69
2022/12/15 08:10:18;;;;;;;15.57;8.50;;;-1.20;99.90;;;;;;5031301;28;20558;-69
2022/12/15 08:12:44;;;;;;;12.98;8.13;;;-1.00;99.90;;;;;;5013577;28;20522;-70
2022/12/15 08:15:10;;;;;;;10.30;7.28;;;-0.90;99.90;;;;;;5031499;28;20037;-70
2022/12/15 08:17:36;;;;;;;16.65;8.82;;;-0.90;99.90;;;;;;4997545;28;20045;-70
2022/12/15 08:20:02;;;;;;;11.13;7.47;;;-1.00;99.90;;;;;;5031425;28;20037;-70
2022/12/15 08:22:28;;;;;;;12.50;7.78;;;-1.20;99.90;;;;;;5013344;28;20463;-70
2022/12/15 08:24:53;;;;;;;13.75;7.93;;;-1.20;99.90;;;;;;5013667;28;20041;-70
2022/12/15 08:27:20;;;;;;;16.95;9.98;;;-1.20;99.90;;;;;;5013956;28;20069;-70
2022/12/15 08:29:45;;;;;;;16.50;9.27;;;-0.90;99.90;;;;;;4997027;28;20095;-70
2022/12/15 08:32:11;;;;;;;12.18;8.27;;;-0.80;99.90;;;;;;5013803;28;20041;-70
2022/12/15 08:34:37;;;;;;;15.20;8.30;;;-1.00;99.90;;;;;;5013530;28;20095;-70
2022/12/15 08:37:03;;;;;;;13.43;7.90;;;-0.90;99.90;;;;;;5031249;28;20045;-70
2022/12/15 08:39:28;;;;;;;14.98;8.55;;;-0.70;99.90;;;;;;5031086;28;20553;-70
2022/12/15 08:41:54;;;;;;;14.55;8.43;;;-1.00;99.90;;;;;;5013497;28;20065;-70
2022/12/15 08:44:21;;;;;;;13.57;7.93;;;-0.80;99.90;;;;;;5031018;28;20115;-70
2022/12/15 08:46:47;;;;;;;13.45;7.65;;;-0.90;99.90;;;;;;5013644;28;20399;-70
2022/12/15 08:49:12;;;;;;;18.60;9.70;;;-0.60;99.90;;;;;;5013230;28;20041;-70
2022/12/15 08:51:38;;;;;;;12.07;8.27;;;-0.60;99.90;;;;;;5013720;28;20038;-70
2022/12/15 08:54:04;;;;;;;12.95;7.90;;;-0.70;99.90;;;;;;5030740;28;20045;-70
2022/12/15 08:56:29;;;;;;;14.23;9.25;;;-0.60;99.90;;;;;;5013818;28;20041;-71
2022/12/15 08:58:58;;;;;;;16.05;9.25;;;-0.50;99.90;;;;;;5013789;28;20050;-70
2022/12/15 09:01:25;;;;;;;17.13;8.75;;;-0.70;99.90;;;;;;5013207;28;20038;-70
2022/12/15 09:03:52;;;;;;;19.77;9.43;;;-0.50;99.90;;;;;;5031364;28;20049;-70
2022/12/15 09:06:36;;;;;;;18.27;8.00;;;-0.50;99.90;;;;;;5034953;28;20048;-71
2022/12/15 09:09:06;;;;;;;14.20;9.65;;;-0.80;99.90;;;;;;5017576;28;20059;-71
2022/12/15 09:11:31;;;;;;;18.52;8.57;;;-0.70;99.90;;;;;;5017084;28;20030;-71
2022/12/15 09:13:57;;;;;;;19.10;8.82;;;-0.40;99.90;;;;;;5034746;28;20103;-71
2022/12/15 09:16:23;;;;;;;22.77;10.45;;;-0.60;99.90;;;;;;5034840;28;20041;-71
2022/12/15 09:18:52;;;;;;;17.63;9.77;;;-0.10;99.90;;;;;;5016775;28;20076;-70
2022/12/15 09:21:21;;;;;;;16.65;10.10;;;-0.20;99.90;;;;;;5016711;28;20041;-71
2022/12/15 09:23:51;;;;;;;19.10;10.63;;;-0.40;99.90;;;;;;5016225;28;20103;-71
2022/12/15 09:26:18;;;;;;;18.88;10.27;;;0.10;99.90;;;;;;5034723;28;20038;-72
2022/12/15 09:28:44;;;;;;;15.93;9.88;;;-0.30;99.90;;;;;;5016591;28;20045;-71
2022/12/15 09:31:15;;;;;;;14.32;9.65;;;-0.30;99.90;;;;;;5000322;28;20111;-71
2022/12/15 09:33:42;;;;;;;17.15;9.82;;;-0.20;99.90;;;;;;5016510;28;20049;-71
2022/12/15 09:36:10;;;;;;;16.88;10.35;;;0.20;99.90;;;;;;5000367;28;20052;-71
2022/12/15 09:38:39;;;;;;;14.85;9.63;;;0.00;99.90;;;;;;5000304;28;20081;-71
2022/12/15 09:41:14;;;;;;;21.50;9.95;;;0.00;99.90;;;;;;5016856;28;20052;-71
2022/12/15 09:43:57;;;;;;;16.55;9.63;;;-0.20;99.90;;;;;;5016584;28;20057;-72
2022/12/15 09:46:49;;;;;;;20.65;10.00;;;0.00;99.90;;;;;;5016859;28;20045;-71
2022/12/15 09:49:38;;;;;;;15.73;9.27;;;0.20;99.90;;;;;;5016630;28;20056;-71
2022/12/15 09:52:11;;;;;;;17.45;9.75;;;0.30;99.90;;;;;;5033260;28;20034;-71
2022/12/15 09:54:40;;;;;;;16.50;8.95;;;-0.10;99.90;;;;;;5015567;28;20124;-72
2022/12/15 09:57:28;;;;;;;21.02;10.43;;;0.00;99.90;;;;;;5016144;28;20515;-71
2022/12/15 10:00:24;;;;;;;18.60;9.80;;;0.30;99.90;;;;;;5015989;28;20049;-71
2022/12/15 10:03:09;;;;;;;15.45;9.48;;;-0.10;99.90;;;;;;5004355;28;20061;-71
2022/12/15 10:06:00;;;;;;;18.77;10.02;;;-0.20;99.90;;;;;;5053865;28;20074;-72
2022/12/15 10:08:29;;;;;;;16.55;9.40;;;0.10;99.90;;;;;;5036130;28;20041;-71
2022/12/15 10:10:58;;;;;;;18.15;9.43;;;-0.20;99.90;;;;;;5035903;28;20040;-71
2022/12/15 10:13:39;;;;;;;18.25;10.18;;;0.30;99.90;;;;;;5053524;28;20036;-71
2022/12/15 10:16:36;;;;;;;40.22;11.88;;;0.40;99.90;;;;;;5052631;28;20548;-71
2022/12/15 10:19:06;;;;;;;16.42;10.15;;;0.00;99.90;;;;;;5008473;28;20160;-71
2022/12/15 10:21:32;;;;;;;16.75;11.18;;;0.10;99.90;;;;;;5036375;28;20060;-71
2022/12/15 10:24:23;;;;;;;16.92;11.48;;;0.30;99.90;;;;;;5054154;28;20105;-72
2022/12/15 10:27:01;;;;;;;19.40;10.05;;;0.40;99.90;;;;;;5046522;28;20048;-71
2022/12/15 10:29:43;;;;;;;18.02;10.38;;;0.50;99.90;;;;;;5054312;28;20041;-71
2022/12/15 10:32:27;;;;;;;15.48;10.35;;;0.50;99.90;;;;;;5090441;22;20036;-74
2022/12/15 10:34:53;;;;;;;16.27;9.65;;;0.40;99.90;;;;;;5071760;28;20048;-73
2022/12/15 10:37:19;;;;;;;18.42;10.23;;;0.80;99.90;;;;;;5071823;28;20033;-74
2022/12/15 10:39:50;;;;;;;16.55;10.65;;;0.90;99.90;;;;;;5071960;28;20041;-73
2022/12/15 10:42:25;;;;;;;39.78;12.25;;;0.90;99.90;;;;;;5072912;28;20533;-73
2022/12/15 10:44:56;;;;;;;17.52;10.75;;;0.50;99.90;;;;;;5071645;28;20119;-73
2022/12/15 10:47:28;;;;;;;14.80;10.60;;;0.90;99.90;;;;;;5071739;28;20124;-73
2022/12/15 10:50:14;;;;;;;17.77;10.50;;;0.60;99.90;;;;;;5071754;28;20541;-74
2022/12/15 10:52:40;;;;;;;15.02;10.18;;;0.60;99.90;;;;;;5054712;28;20045;-74
2022/12/15 10:55:34;;;;;;;19.98;10.88;;;1.00;99.90;;;;;;5071593;28;20387;-73
2022/12/15 10:58:01;;;;;;;16.30;10.15;;;0.80;99.90;;;;;;5071760;28;20449;-73
2022/12/15 11:00:30;;;;;;;17.27;10.23;;;1.20;99.90;;;;;;5072643;28;20075;-74
2022/12/15 11:02:56;;;;;;;19.52;10.25;;;1.20;99.90;;;;;;5071098;28;20041;-73
2022/12/15 11:05:22;;;;;;;16.85;8.95;;;0.90;99.90;;;;;;5071304;28;20038;-73
2022/12/15 11:07:54;;;;;;;16.25;8.30;;;1.30;99.90;;;;;;5071181;28;20033;-73
2022/12/15 11:13:16;;;;;;;18.90;8.82;;;1.00;99.90;;;;;;5070944;28;20051;-73
2022/12/15 11:15:45;;;;;;;14.35;9.15;;;1.30;99.90;;;;;;5071069;28;20516;-73
2022/12/15 11:18:18;;;;;;;12.75;8.50;;;1.20;99.90;;;;;;5071012;28;20041;-73
2022/12/15 11:20:53;;;;;;;13.63;8.68;;;1.40;99.90;;;;;;5054477;28;20040;-73
2022/12/15 11:23:29;;;;;;;23.40;9.90;;;1.40;99.90;;;;;;5057367;28;20465;-74
2022/12/15 11:25:59;;;;;;;17.02;9.35;;;1.30;99.90;;;;;;5042090;28;20378;-73
2022/12/15 11:28:37;;;;;;;18.30;9.38;;;1.20;99.90;;;;;;5063500;28;20041;-73
2022/12/15 11:31:21;;;;;;;16.67;9.75;;;1.20;99.90;;;;;;5070605;28;20041;-73
2022/12/15 11:33:46;;;;;;;16.30;8.77;;;1.60;99.90;;;;;;5055412;28;20387;-73
2022/12/15 11:36:37;;;;;;;17.90;8.45;;;1.60;99.90;;;;;;5052106;28;20091;-73
2022/12/15 11:39:18;;;;;;;16.65;9.27;;;1.60;99.90;;;;;;5050781;28;20125;-73
2022/12/15 11:41:53;;;;;;;13.52;8.35;;;1.60;99.90;;;;;;5058296;28;20037;-73
2022/12/15 11:44:24;;;;;;;15.70;9.25;;;1.40;99.90;;;;;;5033770;28;20041;-73
2022/12/15 11:47:08;;;;;;;17.45;8.90;;;1.50;99.90;;;;;;5050757;28;20047;-73
2022/12/15 11:49:47;;;;;;;14.40;8.50;;;1.50;99.90;;;;;;5050654;28;20041;-73
2022/12/15 11:52:51;;;;;;;11.85;7.60;;;1.80;99.90;;;;;;5033844;28;20051;-73
2022/12/15 11:55:25;;;;;;;13.27;7.93;;;1.50;99.90;;;;;;5013067;28;20045;-73
2022/12/15 11:58:18;;;;;;;17.13;8.73;;;1.90;99.90;;;;;;5045898;28;20139;-73
2022/12/15 12:01:13;;;;;;;17.20;9.20;;;1.60;99.90;;;;;;5055145;28;20501;-72
2022/12/15 12:03:50;;;;;;;13.68;7.85;;;1.70;99.90;;;;;;5041668;28;20438;-73
2022/12/15 12:06:23;;;;;;;16.52;8.30;;;1.60;99.90;;;;;;5050365;28;20117;-73
2022/12/15 12:08:55;;;;;;;15.20;10.82;;;1.70;99.90;;;;;;5050468;28;20041;-73
2022/12/15 12:11:31;;;;;;;17.42;8.57;;;1.80;99.90;;;;;;5050158;28;20407;-73
2022/12/15 12:14:18;;;;;;;14.05;8.35;;;1.70;99.90;;;;;;5049909;28;20051;-73
2022/12/15 12:17:08;;;;;;;14.07;8.82;;;1.70;99.90;;;;;;5050195;28;20041;-73
2022/12/15 12:19:44;;;;;;;15.27;7.93;;;1.70;99.90;;;;;;5053136;28;20036;-73
2022/12/15 12:22:33;;;;;;;13.13;7.70;;;1.80;99.90;;;;;;5061738;28;20043;-73
2022/12/15 12:25:05;;;;;;;14.35;7.82;;;1.90;99.90;;;;;;5070308;28;20075;-73
2022/12/15 12:28:03;;;;;;;13.57;7.50;;;1.70;99.90;;;;;;5070363;28;20037;-73
2022/12/15 12:30:37;;;;;;;12.40;7.47;;;1.70;99.90;;;;;;5071495;28;20094;-73
2022/12/15 12:33:08;;;;;;;16.40;8.10;;;1.70;99.90;;;;;;5071159;28;20058;-73
2022/12/15 12:35:43;;;;;;;13.07;8.32;;;1.80;99.90;;;;;;5070205;28;20090;-73
2022/12/15 12:38:11;;;;;;;16.45;7.95;;;2.00;99.90;;;;;;5070197;28;20514;-73
2022/12/15 12:40:39;;;;;;;12.30;6.90;;;1.70;99.90;;;;;;5073926;28;20036;-73
2022/12/15 12:43:07;;;;;;;13.23;6.85;;;2.00;99.90;;;;;;5074037;28;20041;-73
2022/12/15 12:45:35;;;;;;;12.13;7.40;;;1.90;99.90;;;;;;5074579;28;20043;-73
2022/12/15 12:48:11;;;;;;;16.33;7.60;;;2.00;99.90;;;;;;5074142;28;20048;-73
2022/12/15 12:50:37;;;;;;;13.70;8.00;;;2.20;99.90;;;;;;5074266;28;20071;-73
2022/12/15 12:53:03;;;;;;;14.23;7.20;;;2.20;99.90;;;;;;5074109;28;20040;-73
2022/12/15 12:55:39;;;;;;;14.07;7.30;;;2.20;99.90;;;;;;5075238;28;20124;-73
2022/12/15 12:58:33;;;;;;;14.50;7.00;;;2.20;99.90;;;;;;5073821;28;20044;-73
2022/12/15 13:01:04;;;;;;;14.05;7.60;;;2.30;99.90;;;;;;5073805;28;20113;-73
2022/12/15 13:03:29;;;;;;;13.35;7.22;;;2.10;99.90;;;;;;5073619;28;20037;-73
2022/12/15 13:05:55;;;;;;;16.88;6.75;;;2.30;99.90;;;;;;5073685;28;20525;-73
2022/12/15 13:08:45;;;;;;;13.52;7.60;;;2.20;99.90;;;;;;5056968;28;20128;-73
2022/12/15 13:11:43;;;;;;;12.63;7.05;;;2.30;99.90;;;;;;5057222;28;20040;-73
2022/12/15 13:14:14;;;;;;;15.77;7.25;;;2.30;99.90;;;;;;5073589;28;20387;-73
2022/12/15 13:16:40;;;;;;;12.95;6.75;;;2.20;99.90;;;;;;5073539;28;20082;-74
2022/12/15 13:19:07;;;;;;;12.90;7.05;;;2.20;99.90;;;;;;5073371;28;20044;-73
2022/12/15 13:21:42;;;;;;;12.95;7.20;;;2.40;99.90;;;;;;5073400;28;20506;-73
2022/12/15 13:24:34;;;;;;;10.90;6.22;;;2.20;99.90;;;;;;5056507;28;20060;-73
2022/12/15 13:27:08;;;;;;;13.70;7.85;;;2.30;99.90;;;;;;5073390;28;20059;-73
2022/12/15 13:29:36;;;;;;;12.85;7.30;;;2.30;99.90;;;;;;5056744;28;20036;-73
2022/12/15 13:32:02;;;;;;;11.98;7.97;;;2.10;99.90;;;;;;5073108;28;20077;-73
2022/12/15 13:34:35;;;;;;;12.35;7.10;;;2.30;99.90;;;;;;5073028;28;20075;-73
2022/12/15 13:37:01;;;;;;;9.55;6.72;;;2.30;99.90;;;;;;5073273;28;20383;-73
2022/12/15 13:39:27;;;;;;;12.57;7.10;;;2.40;99.90;;;;;;5073146;28;20078;-73
2022/12/15 13:42:05;;;;;;;15.07;7.78;;;2.10;99.90;;;;;;5072950;28;20048;-73
2022/12/15 13:44:45;;;;;;;12.90;7.43;;;2.10;99.90;;;;;;5072805;28;20041;-73
2022/12/15 13:47:29;;;;;;;14.00;8.02;;;2.20;99.90;;;;;;5073059;28;20040;-73
2022/12/15 13:50:06;;;;;;;13.25;8.10;;;2.30;99.90;;;;;;5072727;28;20043;-73
2022/12/15 13:52:44;;;;;;;13.93;8.02;;;2.00;99.90;;;;;;5055965;28;20039;-72
2022/12/15 13:55:25;;;;;;;11.35;7.47;;;2.30;99.90;;;;;;5072959;28;20119;-73
2022/12/15 13:58:15;;;;;;;13.77;7.38;;;2.10;99.90;;;;;;5072921;28;20037;-73
2022/12/15 14:00:52;;;;;;;14.68;7.25;;;2.10;99.90;;;;;;5071788;28;20045;-73
2022/12/15 14:03:18;;;;;;;16.05;8.57;;;2.10;99.90;;;;;;5072582;28;20462;-73
2022/12/15 14:05:55;;;;;;;16.55;8.23;;;2.20;99.90;;;;;;5056018;28;20132;-73
2022/12/15 14:08:24;;;;;;;14.93;7.18;;;2.10;99.90;;;;;;5072655;28;20044;-73
2022/12/15 14:10:51;;;;;;;11.57;6.93;;;2.10;99.90;;;;;;5072454;28;20064;-73
2022/12/15 14:13:24;;;;;;;15.52;8.70;;;2.20;99.90;;;;;;5072135;28;20032;-73
2022/12/15 14:16:03;;;;;;;18.45;9.55;;;2.30;99.90;;;;;;5072563;28;20521;-73
2022/12/15 14:18:32;;;;;;;10.25;6.85;;;2.20;99.90;;;;;;5073822;28;20041;-73
2022/12/15 14:20:59;;;;;;;13.93;7.80;;;2.30;99.90;;;;;;5072360;28;20048;-73
2022/12/15 14:23:39;;;;;;;13.70;7.82;;;2.40;99.90;;;;;;5071999;28;20461;-73
2022/12/15 14:26:07;;;;;;;16.30;8.02;;;2.20;99.90;;;;;;5055625;28;20036;-73
2022/12/15 14:28:35;;;;;;;18.60;7.72;;;2.30;99.90;;;;;;5072477;28;20532;-73
2022/12/15 14:31:22;;;;;;;11.43;7.72;;;2.20;99.90;;;;;;5072367;28;20040;-73
2022/12/15 14:34:07;;;;;;;14.73;8.13;;;2.20;99.90;;;;;;5072170;28;20036;-73
2022/12/15 14:36:34;;;;;;;14.68;8.05;;;2.30;99.90;;;;;;5072257;28;20131;-73
2022/12/15 14:39:04;;;;;;;11.90;8.57;;;2.20;99.90;;;;;;5072119;28;20123;-73
2022/12/15 14:41:34;;;;;;;14.20;8.23;;;2.40;99.90;;;;;;5071911;28;20040;-73
2022/12/15 14:44:07;;;;;;;16.95;7.95;;;2.30;99.90;;;;;;5071669;28;20123;-73
2022/12/15 14:46:32;;;;;;;15.63;7.68;;;2.30;99.90;;;;;;5072267;28;20498;-75
2022/12/15 14:49:04;;;;;;;12.65;8.25;;;2.40;99.90;;;;;;5073269;28;20097;-74
2022/12/15 14:51:39;;;;;;;15.15;8.00;;;2.40;99.90;;;;;;5071798;28;20032;-73
2022/12/15 14:54:04;;;;;;;15.05;8.57;;;2.20;99.90;;;;;;5071518;28;20048;-73
2022/12/15 14:56:30;;;;;;;16.73;8.30;;;2.40;99.90;;;;;;5071631;28;20044;-73
2022/12/15 14:59:02;;;;;;;15.30;8.55;;;2.40;99.90;;;;;;5071667;28;20109;-74
2022/12/15 15:01:29;;;;;;;16.65;8.90;;;2.40;99.90;;;;;;5071283;28;20050;-75
2022/12/15 15:03:57;;;;;;;14.07;8.60;;;2.30;99.90;;;;;;5068479;28;21650;-75
2022/12/15 15:06:28;;;;;;;16.83;9.32;;;2.40;99.90;;;;;;5063235;28;20028;-76
2022/12/15 15:08:54;;;;;;;15.05;8.82;;;2.40;99.90;;;;;;5060368;28;20040;-75
2022/12/15 15:11:34;;;;;;;16.90;9.55;;;2.10;99.90;;;;;;5051300;28;20047;-75
2022/12/15 15:14:04;;;;;;;14.45;8.30;;;2.20;99.90;;;;;;5040191;28;20040;-75
2022/12/15 15:16:29;;;;;;;16.08;9.30;;;1.90;99.90;;;;;;5071196;28;20052;-75
2022/12/15 15:18:56;;;;;;;12.77;8.80;;;1.90;99.90;;;;;;5072307;28;20048;-74